Durant, Oklahoma
Current Conditions -  °F | °C
As of 9:35 PM on Sunday 21 Dec 2014 (Local Time) from KDUA Reporting Station
Overcast Overcast  
Wind Chill: 42°   Ceiling: 1000
Heat Index: 46°   Visibility: 7mi
Dew Point: 46°   Wind: 9mph
Humidity: 100%   Direction: 160°SSE
Pressure: 29.8"   Gusts: NA
Location:  33.99°N, 96.39°W
Report Text: KDUA 220335Z AUTO 16008KT 7SM OVC010 08/08 A2980 RMK AO2
Loading
Personal Weather Stations






























Interactive Weather Map New forecast layout! Learn more

10-Day Weather Forecast

Advertisements
Track Severe Weather on mobile